Time;durP1;ratioP1;P1;durP2;ratioP2;P2;SDS_P1;SDS_P2;PMS_P1;PMS_P2;Temp;Humidity;BMP_temperature;BMP_pressure;BME280_temperature;BME280_humidity;BME280_pressure;Samples;Min_cycle;Max_cycle;Signal;HPM_P1;HPM_P2
2022/07/31 00:00:45;;;;;;;;;1.00;1.00;;;;;-146.44;100.00;58906.56;5058333;28;45376;-67
2022/07/31 00:03:11;;;;;;;;;2.00;1.00;;;;;-146.44;100.00;58906.56;5058382;28;45639;-67
2022/07/31 00:05:36;;;;;;;;;1.25;1.25;;;;;-146.44;100.00;58906.56;5057170;28;45406;-66
2022/07/31 00:08:03;;;;;;;;;1.50;1.50;;;;;-146.44;100.00;58906.56;5058128;28;45445;-65
2022/07/31 00:10:28;;;;;;;;;1.60;1.00;;;;;-146.44;100.00;58906.56;5057414;28;45454;-66
2022/07/31 00:12:54;;;;;;;;;2.00;2.00;;;;;-146.44;100.00;58906.56;5078692;27;45354;-66
2022/07/31 00:15:20;;;;;;;;;1.75;1.75;;;;;-146.44;100.00;58906.56;5078295;27;45450;-65
2022/07/31 00:17:45;;;;;;;;;1.00;1.00;;;;;-146.44;100.00;58906.56;5078128;28;45542;-67
2022/07/31 00:20:13;;;;;;;;;2.00;2.00;;;;;-146.44;100.00;58906.56;5078644;27;45422;-66
2022/07/31 00:22:39;;;;;;;;;1.00;1.00;;;;;-146.44;100.00;58906.56;5068480;27;45501;-66
2022/07/31 00:25:05;;;;;;;;;1.00;1.00;;;;;-146.44;100.00;58906.56;5058298;28;45411;-66
2022/07/31 00:27:31;;;;;;;;;2.00;2.00;;;;;-146.44;100.00;58906.56;5058495;28;45485;-65
2022/07/31 00:29:56;;;;;;;;;1.00;1.00;;;;;-146.44;100.00;58906.56;5058066;28;45422;-66
2022/07/31 00:32:22;;;;;;;;;1.00;1.00;;;;;-146.44;100.00;58906.56;5057655;28;45466;-67
2022/07/31 00:34:47;;;;;;;;;1.00;1.00;;;;;-146.44;100.00;58906.56;5058069;28;45526;-66
2022/07/31 00:37:12;;;;;;;;;1.00;1.00;;;;;-146.44;100.00;58906.56;5057603;28;48319;-66
2022/07/31 00:39:38;;;;;;;;;2.00;2.00;;;;;-146.44;100.00;58906.56;5058421;28;45332;-67
2022/07/31 00:42:04;;;;;;;;;1.00;1.00;;;;;-146.44;100.00;58906.56;5056698;28;45390;-67
2022/07/31 00:44:29;;;;;;;;;3.00;3.00;;;;;-146.44;100.00;58906.56;5058342;28;45395;-65
2022/07/31 00:46:55;;;;;;;;;2.00;2.00;;;;;-146.44;100.00;58906.56;5072768;28;46748;-65
2022/07/31 00:49:20;;;;;;;;;2.00;2.00;;;;;-146.44;100.00;58906.56;5057420;28;45531;-65
2022/07/31 00:51:46;;;;;;;;;1.00;1.00;;;;;-146.44;100.00;58906.56;5060325;28;45561;-65
2022/07/31 00:54:12;;;;;;;;;1.00;1.00;;;;;-146.44;100.00;58906.56;5086001;27;45335;-66
2022/07/31 00:56:38;;;;;;;;;1.00;1.00;;;;;-146.44;100.00;58906.56;5064159;27;45537;-65
2022/07/31 00:59:04;;;;;;;;;1.00;1.00;;;;;-146.44;100.00;58906.56;5057485;28;45526;-66
2022/07/31 01:01:29;;;;;;;;;2.00;2.00;;;;;-146.44;100.00;58906.56;5058133;28;45440;-65
2022/07/31 01:03:55;;;;;;;;;1.00;1.00;;;;;-146.44;100.00;58906.56;5077694;27;45702;-65
2022/07/31 01:06:20;;;;;;;;;2.25;1.75;;;;;-146.44;100.00;58906.56;5076470;28;46161;-67
2022/07/31 01:08:46;;;;;;;;;2.00;2.00;;;;;-146.44;100.00;58906.56;5077881;27;45500;-67
2022/07/31 01:11:23;;;;;;;;;2.00;2.00;;;;;-146.44;100.00;58906.56;5077118;27;45453;-67
2022/07/31 01:13:51;;;;;;;;;2.00;2.00;;;;;-146.44;100.00;58906.56;5077221;27;45501;-67
2022/07/31 01:16:18;;;;;;;;;1.75;1.00;;;;;-146.44;100.00;58906.56;5077378;27;45491;-66
2022/07/31 01:18:45;;;;;;;;;1.00;1.00;;;;;-146.44;100.00;58906.56;5074113;27;45535;-68
2022/07/31 01:21:18;;;;;;;;;0.00;0.00;;;;;-146.44;100.00;58906.56;5067325;28;45519;-65
2022/07/31 01:24:07;;;;;;;;;1.00;1.00;;;;;-146.44;100.00;58906.56;5077424;27;45371;-67
2022/07/31 01:26:48;;;;;;;;;0.80;0.80;;;;;-146.44;100.00;58906.56;5076563;27;45528;-67
2022/07/31 01:29:43;;;;;;;;;1.00;1.00;;;;;-146.44;100.00;58906.56;5076048;28;45479;-65
2022/07/31 01:32:24;;;;;;;;;1.00;1.00;;;;;-146.44;100.00;58906.56;5060695;27;45499;-66
2022/07/31 01:35:05;;;;;;;;;0.75;0.75;;;;;-146.44;100.00;58906.56;5057266;28;45438;-66
2022/07/31 01:37:35;;;;;;;;;2.00;1.00;;;;;-146.44;100.00;58906.56;5074088;28;45449;-65
2022/07/31 01:40:07;;;;;;;;;1.00;1.00;;;;;-146.44;100.00;58906.56;5077492;27;45429;-66
2022/07/31 01:42:36;;;;;;;;;1.00;1.00;;;;;-146.44;100.00;58906.56;5074509;27;45509;-66
2022/07/31 01:45:06;;;;;;;;;1.00;1.00;;;;;-146.44;100.00;58906.56;5056945;28;45365;-67
2022/07/31 01:47:33;;;;;;;;;1.00;1.00;;;;;-146.44;100.00;58906.56;5056514;28;45581;-66
2022/07/31 01:50:01;;;;;;;;;1.80;1.80;;;;;-146.44;100.00;58906.56;5056873;28;45548;-66
2022/07/31 01:52:28;;;;;;;;;0.00;0.00;;;;;-146.44;100.00;58906.56;5057101;28;45469;-67
2022/07/31 01:54:55;;;;;;;;;1.25;0.25;;;;;-146.44;100.00;58906.56;5058396;27;45446;-67
2022/07/31 01:57:23;;;;;;;;;2.25;1.00;;;;;-146.44;100.00;58906.56;5056301;28;46285;-66
2022/07/31 01:59:50;;;;;;;;;1.20;1.00;;;;;-146.44;100.00;58906.56;5056615;28;45386;-66
2022/07/31 02:02:18;;;;;;;;;0.50;0.50;;;;;-146.44;100.00;58906.56;5056548;28;45377;-65
2022/07/31 02:04:45;;;;;;;;;0.50;0.50;;;;;-146.44;100.00;58906.56;5056576;28;45459;-66
2022/07/31 02:07:13;;;;;;;;;0.00;0.00;;;;;-146.44;100.00;58906.56;5056520;28;45418;-65
2022/07/31 02:09:43;;;;;;;;;1.40;1.40;;;;;-146.44;100.00;58906.56;5057143;28;45525;-66
2022/07/31 02:12:10;;;;;;;;;1.00;1.00;;;;;-146.44;100.00;58906.56;5056454;28;45394;-67
2022/07/31 02:14:39;;;;;;;;;0.00;0.00;;;;;-146.44;100.00;58906.56;5056262;28;45506;-66
2022/07/31 02:17:06;;;;;;;;;1.25;1.25;;;;;-146.44;100.00;58906.56;5055922;28;46088;-67
2022/07/31 02:19:35;;;;;;;;;1.00;1.00;;;;;-146.44;100.00;58906.56;5055906;28;45594;-67
2022/07/31 02:22:00;;;;;;;;;1.75;1.75;;;;;-146.44;100.00;58906.56;5071806;28;45374;-66
2022/07/31 02:24:26;;;;;;;;;1.00;1.00;;;;;-146.44;100.00;58906.56;5076314;27;45422;-66
2022/07/31 02:26:52;;;;;;;;;1.00;1.00;;;;;-146.44;100.00;58906.56;5072106;27;46490;-66
2022/07/31 02:29:18;;;;;;;;;0.50;0.50;;;;;-146.44;100.00;58906.56;5056116;28;45446;-67
2022/07/31 02:31:47;;;;;;;;;1.00;1.00;;;;;-146.44;100.00;58906.56;5055672;28;45437;-66
2022/07/31 02:34:14;;;;;;;;;1.00;1.00;;;;;-146.44;100.00;58906.56;5056149;28;45670;-66
2022/07/31 02:36:40;;;;;;;;;2.75;2.75;;;;;-146.44;100.00;58906.56;5054219;28;48068;-66
2022/07/31 02:39:07;;;;;;;;;1.00;1.00;;;;;-146.44;100.00;58906.56;5055508;28;45427;-66
2022/07/31 02:41:34;;;;;;;;;2.25;2.25;;;;;-146.44;100.00;58906.56;5055823;28;45519;-66
2022/07/31 02:44:00;;;;;;;;;2.00;2.00;;;;;-146.44;100.00;58906.56;5060108;28;45442;-66
2022/07/31 02:46:26;;;;;;;;;1.00;1.00;;;;;-146.44;100.00;58906.56;5075995;27;45430;-66
2022/07/31 02:48:53;;;;;;;;;2.00;2.00;;;;;-146.44;100.00;58906.56;5075791;27;45426;-67
2022/07/31 02:51:18;;;;;;;;;2.00;2.00;;;;;-146.44;100.00;58906.56;5061834;27;45509;-67
2022/07/31 02:53:44;;;;;;;;;2.00;2.00;;;;;-146.44;100.00;58906.56;5062925;28;45619;-66
2022/07/31 02:56:10;;;;;;;;;2.00;2.00;;;;;-146.44;100.00;58906.56;5075843;27;45547;-67
2022/07/31 02:58:41;;;;;;;;;3.40;3.40;;;;;-146.44;100.00;58906.56;5075815;28;45403;-67
2022/07/31 03:01:08;;;;;;;;;2.00;2.00;;;;;-146.44;100.00;58906.56;5074917;27;45354;-66
2022/07/31 03:03:34;;;;;;;;;2.00;2.00;;;;;-146.44;100.00;58906.56;5075667;27;45441;-67
2022/07/31 03:05:59;;;;;;;;;1.50;1.50;;;;;-146.44;100.00;58906.56;5063629;28;45405;-66
2022/07/31 03:08:26;;;;;;;;;1.50;1.50;;;;;-146.44;100.00;58906.56;5055642;28;45451;-66
2022/07/31 03:10:51;;;;;;;;;2.50;2.25;;;;;-146.44;100.00;58906.56;5065496;28;45496;-66
2022/07/31 03:13:18;;;;;;;;;1.00;1.00;;;;;-146.44;100.00;58906.56;5055283;28;45505;-73
2022/07/31 03:15:46;;;;;;;;;2.00;2.00;;;;;-146.44;100.00;58906.56;5057109;28;46129;-67
2022/07/31 03:18:13;;;;;;;;;2.60;2.60;;;;;-146.44;100.00;58906.56;5067533;28;45452;-66
2022/07/31 03:20:40;;;;;;;;;2.00;2.00;;;;;-146.44;100.00;58906.56;5075563;27;45413;-65
2022/07/31 03:23:06;;;;;;;;;3.25;3.25;;;;;-146.44;100.00;58906.56;5075504;27;45574;-65
2022/07/31 03:25:32;;;;;;;;;3.50;3.50;;;;;-146.44;100.00;58906.56;5075077;27;45529;-66
2022/07/31 03:27:59;;;;;;;;;3.00;3.00;;;;;-146.44;100.00;58906.56;5072952;27;45516;-66
2022/07/31 03:30:25;;;;;;;;;4.75;4.75;;;;;-146.44;100.00;58906.56;5054980;28;45343;-66
2022/07/31 03:32:51;;;;;;;;;7.00;4.75;;;;;-146.44;100.00;58906.56;5070735;28;45453;-68
2022/07/31 03:35:17;;;;;;;;;5.00;5.00;;;;;-146.44;100.00;58906.56;5062011;28;46183;-65
2022/07/31 03:37:43;;;;;;;;;4.00;4.00;;;;;-146.44;100.00;58906.56;5075357;27;45414;-65
2022/07/31 03:40:09;;;;;;;;;5.00;5.00;;;;;-146.44;100.00;58906.56;5074448;27;45456;-67
2022/07/31 03:42:34;;;;;;;;;6.50;6.00;;;;;-146.44;100.00;58906.56;5074860;28;45471;-65
2022/07/31 03:45:01;;;;;;;;;6.00;6.00;;;;;-146.44;100.00;58906.56;5075123;27;45943;-65
2022/07/31 03:47:28;;;;;;;;;6.25;6.25;;;;;-146.44;100.00;58906.56;5075136;27;45476;-65
2022/07/31 03:49:53;;;;;;;;;5.75;5.75;;;;;-146.44;100.00;58906.56;5077735;27;45448;-64
2022/07/31 03:52:19;;;;;;;;;7.00;7.00;;;;;-146.44;100.00;58906.56;5060839;27;45485;-67
2022/07/31 03:54:44;;;;;;;;;5.50;5.50;;;;;-146.44;100.00;58906.56;5058066;28;46318;-65
2022/07/31 03:57:10;;;;;;;;;7.25;7.25;;;;;-146.44;100.00;58906.56;5058194;28;45403;-69
2022/07/31 03:59:36;;;;;;;;;6.00;6.00;;;;;-146.44;100.00;58906.56;5076755;28;45345;-65
2022/07/31 04:02:02;;;;;;;;;6.00;6.00;;;;;-146.44;100.00;58906.56;5077787;27;45398;-66
2022/07/31 04:04:27;;;;;;;;;5.25;5.00;;;;;-146.44;100.00;58906.56;5057834;28;46119;-66
2022/07/31 04:06:53;;;;;;;;;5.00;5.00;;;;;-146.44;100.00;58906.56;5058032;28;45288;-65
2022/07/31 04:09:19;;;;;;;;;7.25;7.25;;;;;-146.44;100.00;58906.56;5065577;28;45372;-67
2022/07/31 04:11:44;;;;;;;;;8.50;7.50;;;;;-146.44;100.00;58906.56;5078279;27;45548;-66
2022/07/31 04:14:11;;;;;;;;;8.50;7.25;;;;;-146.44;100.00;58906.56;5072087;27;46705;-65
2022/07/31 04:16:36;;;;;;;;;8.75;8.50;;;;;-146.44;100.00;58906.56;5057814;28;45493;-65
2022/07/31 04:19:02;;;;;;;;;12.25;10.50;;;;;-146.44;100.00;58906.56;5057762;28;45485;-65
2022/07/31 04:21:27;;;;;;;;;13.00;11.25;;;;;-146.44;100.00;58906.56;5056573;28;45504;-66
2022/07/31 04:23:53;;;;;;;;;13.33;13.33;;;;;-146.44;100.00;58906.56;5057319;28;45457;-65
2022/07/31 04:26:18;;;;;;;;;15.00;12.25;;;;;-146.44;100.00;58906.56;5065079;28;45453;-64
2022/07/31 04:28:43;;;;;;;;;13.75;12.00;;;;;-146.44;100.00;58906.56;5078297;27;45444;-66
2022/07/31 04:31:09;;;;;;;;;15.00;15.00;;;;;-146.44;100.00;58906.56;5077709;27;45296;-66
2022/07/31 04:33:34;;;;;;;;;13.00;12.33;;;;;-146.44;100.00;58906.56;5071978;27;45365;-65
2022/07/31 04:35:59;;;;;;;;;13.00;13.00;;;;;-146.44;100.00;58906.56;5057116;28;45711;-65
2022/07/31 04:38:25;;;;;;;;;12.00;12.00;;;;;-146.44;100.00;58906.56;5056883;28;45703;-66
2022/07/31 04:40:50;;;;;;;;;10.00;10.00;;;;;-146.44;100.00;58906.56;5056361;28;45304;-66
2022/07/31 04:43:15;;;;;;;;;9.75;9.75;;;;;-146.44;100.00;58906.56;5057886;28;45585;-67
2022/07/31 04:45:41;;;;;;;;;9.00;9.00;;;;;-146.44;100.00;58906.56;5057061;28;45390;-65
2022/07/31 04:48:07;;;;;;;;;7.50;7.50;;;;;-146.44;100.00;58906.56;5056275;28;45379;-67
2022/07/31 04:50:32;;;;;;;;;7.25;7.25;;;;;-146.44;100.00;58906.56;5064028;28;45570;-67
2022/07/31 04:52:58;;;;;;;;;9.00;9.00;;;;;-146.44;100.00;58906.56;5077396;27;46114;-66
2022/07/31 04:55:23;;;;;;;;;11.50;11.50;;;;;-146.44;100.00;58906.56;5075852;28;45499;-65
2022/07/31 04:57:49;;;;;;;;;7.00;7.00;;;;;-146.44;100.00;58906.56;5071308;28;45604;-66
2022/07/31 05:00:14;;;;;;;;;7.00;7.00;;;;;-146.44;100.00;58906.56;5063200;28;45485;-66
2022/07/31 05:02:40;;;;;;;;;8.75;8.25;;;;;-146.44;100.00;58906.56;5076968;27;46174;-66
2022/07/31 05:05:06;;;;;;;;;5.50;5.50;;;;;-146.44;100.00;58906.56;5069806;27;45371;-65
2022/07/31 05:07:31;;;;;;;;;10.00;9.00;;;;;-146.44;100.00;58906.56;5057257;28;45432;-67
2022/07/31 05:09:57;;;;;;;;;9.00;8.75;;;;;-146.44;100.00;58906.56;5056931;28;45782;-67
2022/07/31 05:12:22;;;;;;;;;7.50;7.50;;;;;-146.44;100.00;58906.56;5056697;28;45970;-66
2022/07/31 05:14:48;;;;;;;;;9.25;9.25;;;;;-146.44;100.00;58906.56;5057034;28;45543;-65
2022/07/31 05:17:13;;;;;;;;;8.75;8.75;;;;;-146.44;100.00;58906.56;5063532;28;45439;-65
2022/07/31 05:19:38;;;;;;;;;7.00;7.00;;;;;-146.44;100.00;58906.56;5076826;27;45410;-66
2022/07/31 05:22:04;;;;;;;;;8.00;8.00;;;;;-146.44;100.00;58906.56;5068235;27;46699;-66
2022/07/31 05:24:31;;;;;;;;;6.25;6.25;;;;;-146.44;100.00;58906.56;5056793;28;45430;-67
2022/07/31 05:26:56;;;;;;;;;5.00;5.00;;;;;-146.44;100.00;58906.56;5056875;28;45354;-67
2022/07/31 05:29:21;;;;;;;;;5.75;5.25;;;;;-146.44;100.00;58906.56;5056842;28;45662;-65
2022/07/31 05:31:47;;;;;;;;;5.50;5.50;;;;;-146.44;100.00;58906.56;5056406;28;46122;-65
2022/07/31 05:34:13;;;;;;;;;5.50;5.50;;;;;-146.44;100.00;58906.56;5063134;28;45469;-65
2022/07/31 05:36:38;;;;;;;;;5.00;5.00;;;;;-146.44;100.00;58906.56;5077165;27;45416;-65
2022/07/31 05:39:03;;;;;;;;;4.00;4.00;;;;;-146.44;100.00;58906.56;5077437;27;45503;-66
2022/07/31 05:41:32;;;;;;;;;4.00;4.00;;;;;-146.44;100.00;58906.56;5076736;27;46017;-65
2022/07/31 05:43:57;;;;;;;;;4.00;4.00;;;;;-146.44;100.00;58906.56;5076263;27;45441;-66
2022/07/31 05:46:23;;;;;;;;;4.00;4.00;;;;;-146.44;100.00;58906.56;5066110;27;45527;-65
2022/07/31 05:48:48;;;;;;;;;4.75;4.75;;;;;-146.44;100.00;58906.56;5056573;28;45607;-67
2022/07/31 05:51:13;;;;;;;;;3.25;3.25;;;;;-146.44;100.00;58906.56;5062912;28;46311;-65
2022/07/31 05:53:39;;;;;;;;;5.00;5.00;;;;;-146.44;100.00;58906.56;5076496;27;45346;-66
2022/07/31 05:56:05;;;;;;;;;6.00;4.50;;;;;-146.44;100.00;58906.56;5076774;27;45447;-67
2022/07/31 05:58:31;;;;;;;;;5.00;5.00;;;;;-146.44;100.00;58906.56;5065314;27;45670;-66
2022/07/31 06:00:57;;;;;;;;;4.50;4.50;;;;;-146.44;100.00;58906.56;5055880;28;45606;-66
2022/07/31 06:03:23;;;;;;;;;6.00;6.00;;;;;-146.44;100.00;58906.56;5056103;28;45414;-65
2022/07/31 06:05:50;;;;;;;;;5.25;3.50;;;;;-146.44;100.00;58906.56;5056071;28;45628;-67
2022/07/31 06:08:15;;;;;;;;;3.25;3.25;;;;;-146.44;100.00;58906.56;5063145;28;45406;-66
2022/07/31 06:10:41;;;;;;;;;5.00;5.00;;;;;-146.44;100.00;58906.56;5063669;28;45481;-66
2022/07/31 06:13:06;;;;;;;;;4.00;4.00;;;;;-146.44;100.00;58906.56;5056974;28;45370;-66
2022/07/31 06:15:32;;;;;;;;;5.00;5.00;;;;;-146.44;100.00;58906.56;5072370;27;45355;-67
2022/07/31 06:17:58;;;;;;;;;4.00;4.00;;;;;-146.44;100.00;58906.56;5071200;28;45665;-65
2022/07/31 06:20:23;;;;;;;;;4.00;4.00;;;;;-146.44;100.00;58906.56;5055953;28;45940;-66
2022/07/31 06:22:49;;;;;;;;;4.50;4.50;;;;;-146.44;100.00;58906.56;5055938;28;45388;-65
2022/07/31 06:25:15;;;;;;;;;4.00;4.00;;;;;-146.44;100.00;58906.56;5062839;28;45423;-67
2022/07/31 06:27:41;;;;;;;;;4.00;4.00;;;;;-146.44;100.00;58906.56;5072768;27;45375;-67
2022/07/31 06:30:07;;;;;;;;;4.75;4.75;;;;;-146.44;100.00;58906.56;5055710;28;46283;-67
2022/07/31 06:32:33;;;;;;;;;4.25;4.25;;;;;-146.44;100.00;58906.56;5055693;28;45451;-66
2022/07/31 06:34:59;;;;;;;;;3.00;3.00;;;;;-146.44;100.00;58906.56;5055884;28;45454;-65
2022/07/31 06:37:24;;;;;;;;;5.25;5.25;;;;;-146.44;100.00;58906.56;5055812;28;45515;-67
2022/07/31 06:39:50;;;;;;;;;6.00;5.25;;;;;-146.44;100.00;58906.56;5060201;27;45508;-67
2022/07/31 06:42:23;;;;;;;;;4.25;4.25;;;;;-146.44;100.00;58906.56;5068363;28;45544;-65
2022/07/31 06:44:49;;;;;;;;;4.50;4.50;;;;;-146.44;100.00;58906.56;5055684;28;45446;-65
2022/07/31 06:47:24;;;;;;;;;6.00;6.00;;;;;-146.44;100.00;58906.56;5055597;28;45454;-67
2022/07/31 06:49:50;;;;;;;;;4.50;4.50;;;;;-146.44;100.00;58906.56;5055540;28;45588;-66
2022/07/31 06:52:16;;;;;;;;;5.75;4.75;;;;;-146.44;100.00;58906.56;5055183;28;45569;-66
2022/07/31 06:54:42;;;;;;;;;6.00;6.00;;;;;-146.44;100.00;58906.56;5055690;28;45541;-65
2022/07/31 06:57:08;;;;;;;;;5.25;4.50;;;;;-146.44;100.00;58906.56;5070876;28;45414;-65
2022/07/31 06:59:33;;;;;;;;;6.00;6.00;;;;;-146.44;100.00;58906.56;5055227;28;45474;-65
2022/07/31 07:01:59;;;;;;;;;6.00;6.00;;;;;-146.44;100.00;58906.56;5055157;28;45379;-66
2022/07/31 07:04:24;;;;;;;;;5.50;5.50;;;;;-146.44;100.00;58906.56;5056963;28;45295;-65
2022/07/31 07:06:49;;;;;;;;;7.25;7.25;;;;;-146.44;100.00;58906.56;5075807;27;45378;-66
2022/07/31 07:09:15;;;;;;;;;6.75;5.00;;;;;-146.44;100.00;58906.56;5075692;27;46121;-66
2022/07/31 07:11:40;;;;;;;;;7.00;7.00;;;;;-146.44;100.00;58906.56;5075182;28;45370;-66
2022/07/31 07:14:05;;;;;;;;;5.50;5.50;;;;;-146.44;100.00;58906.56;5075290;27;45441;-66
2022/07/31 07:16:31;;;;;;;;;5.75;5.75;;;;;-146.44;100.00;58906.56;5059844;28;45641;-67
2022/07/31 07:18:56;;;;;;;;;5.00;5.00;;;;;-146.44;100.00;58906.56;5054786;28;46020;-65
2022/07/31 07:21:22;;;;;;;;;6.00;6.00;;;;;-146.44;100.00;58906.56;5057542;28;45536;-65
2022/07/31 07:23:47;;;;;;;;;5.00;5.00;;;;;-146.44;100.00;58906.56;5064676;27;45550;-70
2022/07/31 07:26:12;;;;;;;;;5.00;5.00;;;;;-146.44;100.00;58906.56;5076928;27;45368;-71
2022/07/31 07:28:38;;;;;;;;;5.50;5.00;;;;;-146.44;100.00;58906.56;5073862;28;45456;-71
2022/07/31 07:31:04;;;;;;;;;6.50;6.50;;;;;-146.44;100.00;58906.56;5079445;27;45455;-75
2022/07/31 07:33:31;;;;;;;;;4.50;4.50;;;;;-146.44;100.00;58906.56;5078032;27;45466;-67
2022/07/31 07:35:56;;;;;;;;;6.00;6.00;;;;;-146.44;100.00;58906.56;5079243;27;45472;-66
2022/07/31 07:38:22;;;;;;;;;5.00;5.00;;;;;-146.44;100.00;58906.56;5061322;27;46308;-66
2022/07/31 07:40:48;;;;;;;;;6.00;6.00;;;;;-146.44;100.00;58906.56;5059167;28;45506;-65
2022/07/31 07:43:13;;;;;;;;;3.00;3.00;;;;;-146.44;100.00;58906.56;5067237;27;45471;-66
2022/07/31 07:45:40;;;;;;;;;6.25;6.25;;;;;-146.44;100.00;58906.56;5078618;27;45402;-67
2022/07/31 07:48:05;;;;;;;;;6.75;6.75;;;;;-146.44;100.00;58906.56;5062682;27;46072;-67
2022/07/31 07:50:31;;;;;;;;;7.00;7.00;;;;;-146.44;100.00;58906.56;5067320;28;45565;-67
2022/07/31 07:52:56;;;;;;;;;5.25;4.25;;;;;-146.44;100.00;58906.56;5076676;27;45418;-66
2022/07/31 07:55:22;;;;;;;;;6.50;6.50;;;;;-146.44;100.00;58906.56;5078700;27;45391;-66
2022/07/31 07:57:47;;;;;;;;;7.00;6.00;;;;;-146.44;100.00;58906.56;5078357;27;47745;-65
2022/07/31 08:00:14;;;;;;;;;7.75;7.75;;;;;-146.44;100.00;58906.56;5076700;28;45443;-66
2022/07/31 08:02:41;;;;;;;;;6.00;6.00;;;;;-146.44;100.00;58906.56;5078523;27;45473;-65
2022/07/31 08:05:07;;;;;;;;;6.00;6.00;;;;;-146.44;100.00;58906.56;5078384;27;45458;-65
2022/07/31 08:07:35;;;;;;;;;5.00;5.00;;;;;-146.44;100.00;58906.56;5077484;27;46086;-66
2022/07/31 08:10:01;;;;;;;;;9.00;8.00;;;;;-146.44;100.00;58906.56;5078153;27;45465;-66
2022/07/31 08:12:26;;;;;;;;;6.50;6.50;;;;;-146.44;100.00;58906.56;5059729;27;45378;-65
2022/07/31 08:14:52;;;;;;;;;6.50;6.50;;;;;-146.44;100.00;58906.56;5057866;28;45477;-67
2022/07/31 08:17:18;;;;;;;;;6.75;6.75;;;;;-146.44;100.00;58906.56;5077597;28;46196;-65
2022/07/31 08:19:44;;;;;;;;;7.00;7.00;;;;;-146.44;100.00;58906.56;5078296;27;45407;-66
2022/07/31 08:22:10;;;;;;;;;7.00;7.00;;;;;-146.44;100.00;58906.56;5078319;28;45481;-67
2022/07/31 08:24:35;;;;;;;;;6.25;6.25;;;;;-146.44;100.00;58906.56;5082834;27;45642;-67
2022/07/31 08:29:45;;;;;;;;;7.00;7.00;;;;;-146.44;100.00;58906.56;5057759;28;45477;-67
2022/07/31 08:32:11;;;;;;;;;5.25;5.25;;;;;-146.44;100.00;58906.56;5056499;27;45505;-66
2022/07/31 08:34:37;;;;;;;;;6.25;6.00;;;;;-146.44;100.00;58906.56;5058162;28;45569;-64
2022/07/31 08:37:05;;;;;;;;;8.75;7.75;;;;;-146.44;100.00;58906.56;5071115;27;45553;-65
2022/07/31 08:39:33;;;;;;;;;6.25;6.25;;;;;-146.44;100.00;58906.56;5059671;28;45501;-64
2022/07/31 08:42:02;;;;;;;;;8.00;6.50;;;;;-146.44;100.00;58906.56;5058182;28;45676;-64
2022/07/31 08:44:28;;;;;;;;;8.00;6.00;;;;;-146.44;100.00;58906.56;5061534;28;45625;-66
2022/07/31 08:46:56;;;;;;;;;6.50;6.50;;;;;-146.44;100.00;58906.56;5066514;28;45491;-65
2022/07/31 08:49:24;;;;;;;;;6.50;6.50;;;;;-146.44;100.00;58906.56;5070706;27;45599;-66
2022/07/31 08:51:52;;;;;;;;;6.50;6.00;;;;;-146.44;100.00;58906.56;5057660;28;45526;-64
2022/07/31 08:54:18;;;;;;;;;6.00;6.00;;;;;-146.44;100.00;58906.56;5066251;27;45599;-66
2022/07/31 08:56:45;;;;;;;;;6.25;6.25;;;;;-146.44;100.00;58906.56;5077533;27;46190;-65
2022/07/31 08:59:11;;;;;;;;;6.25;6.00;;;;;-146.44;100.00;58906.56;5074297;27;45560;-65
2022/07/31 09:01:37;;;;;;;;;4.75;4.75;;;;;-146.44;100.00;58906.56;5071051;27;45370;-66
2022/07/31 09:04:04;;;;;;;;;6.50;6.50;;;;;-146.44;100.00;58906.56;5057353;28;45412;-63
2022/07/31 09:06:29;;;;;;;;;10.00;8.00;;;;;-146.44;100.00;58906.56;5057009;28;45653;-66
2022/07/31 09:08:55;;;;;;;;;6.00;6.00;;;;;-146.44;100.00;58906.56;5057192;28;45501;-66
2022/07/31 09:11:21;;;;;;;;;9.50;8.50;;;;;-146.44;100.00;58906.56;5069874;28;45448;-65
2022/07/31 09:13:56;;;;;;;;;7.25;7.00;;;;;-146.44;100.00;58906.56;5077608;27;45508;-65
2022/07/31 09:16:23;;;;;;;;;8.75;8.75;;;;;-146.44;100.00;58906.56;5076437;28;45452;-66
2022/07/31 09:18:59;;;;;;;;;8.75;8.50;;;;;-146.44;100.00;58906.56;5077340;27;45510;-65
2022/07/31 09:21:25;;;;;;;;;6.25;6.25;;;;;-146.44;100.00;58906.56;5077584;27;45378;-65
2022/07/31 09:23:53;;;;;;;;;7.50;7.50;;;;;-146.44;100.00;58906.56;5075985;28;45555;-65
2022/07/31 09:26:19;;;;;;;;;8.25;7.50;;;;;-146.44;100.00;58906.56;5076646;27;45731;-65
2022/07/31 09:28:48;;;;;;;;;8.25;7.25;;;;;-146.44;100.00;58906.56;5077265;27;45489;-65
2022/07/31 09:31:13;;;;;;;;;6.75;6.75;;;;;-146.44;100.00;58906.56;5077370;27;45409;-65
2022/07/31 09:33:42;;;;;;;;;7.75;7.75;;;;;-146.44;100.00;58906.56;5076137;27;45555;-65
2022/07/31 09:36:07;;;;;;;;;12.00;10.25;;;;;-146.44;100.00;58906.56;5076801;27;45437;-66
2022/07/31 09:38:38;;;;;;;;;7.50;6.75;;;;;-146.44;100.00;58906.56;5076388;27;45419;-66
2022/07/31 09:41:20;;;;;;;;;11.00;10.00;;;;;-146.44;100.00;58906.56;5077360;27;45388;-65
2022/07/31 09:44:01;;;;;;;;;9.00;8.00;;;;;-146.44;100.00;58906.56;5076798;27;45488;-66
2022/07/31 09:46:38;;;;;;;;;9.50;9.00;;;;;-146.44;100.00;58906.56;5075244;28;45486;-66
2022/07/31 09:49:04;;;;;;;;;8.00;8.00;;;;;-146.44;100.00;58906.56;5061861;28;45355;-66
2022/07/31 09:51:44;;;;;;;;;10.75;8.00;;;;;-146.44;100.00;58906.56;5076867;27;45368;-66
2022/07/31 09:54:30;;;;;;;;;9.50;8.75;;;;;-146.44;100.00;58906.56;5077027;27;45498;-66
2022/07/31 09:56:56;;;;;;;;;8.00;8.00;;;;;-146.44;100.00;58906.56;5092183;27;46520;-66
2022/07/31 09:59:22;;;;;;;;;8.50;8.25;;;;;-146.44;100.00;58906.56;5069012;27;45513;-66
2022/07/31 10:01:48;;;;;;;;;9.25;9.25;;;;;-146.44;100.00;58906.56;5056505;28;45401;-66
2022/07/31 10:04:16;;;;;;;;;14.75;10.75;;;;;-146.44;100.00;58906.56;5064556;28;45505;-66
2022/07/31 10:06:46;;;;;;;;;9.75;9.75;;;;;-146.44;100.00;58906.56;5065157;27;45991;-67
2022/07/31 10:09:12;;;;;;;;;9.25;7.75;;;;;-146.44;100.00;58906.56;5060302;28;45870;-66
2022/07/31 10:11:38;;;;;;;;;9.75;9.00;;;;;-146.44;100.00;58906.56;5076470;27;45388;-75
2022/07/31 10:14:06;;;;;;;;;9.00;9.00;;;;;-146.44;100.00;58906.56;5065666;27;45363;-64
2022/07/31 10:16:36;;;;;;;;;52.33;43.33;;;;;-146.44;100.00;58906.56;5055978;28;46324;-66
2022/07/31 10:19:02;;;;;;;;;54.67;45.00;;;;;-146.44;100.00;58906.56;5055691;28;45460;-65
2022/07/31 10:21:36;;;;;;;;;10.50;10.50;;;;;-146.44;100.00;58906.56;5056084;28;45427;-65
2022/07/31 10:24:03;;;;;;;;;9.00;8.25;;;;;-146.44;100.00;58906.56;5069388;28;45518;-64
2022/07/31 10:26:29;;;;;;;;;8.75;8.25;;;;;-146.44;100.00;58906.56;5063244;27;46117;-64
2022/07/31 10:28:56;;;;;;;;;6.50;6.50;;;;;-146.44;100.00;58906.56;5056008;28;45490;-66
2022/07/31 10:31:22;;;;;;;;;10.00;8.75;;;;;-146.44;100.00;58906.56;5062970;27;45549;-70
2022/07/31 10:33:48;;;;;;;;;9.00;7.50;;;;;-146.44;100.00;58906.56;5075048;27;45568;-69
2022/07/31 10:36:24;;;;;;;;;10.00;10.00;;;;;-146.44;100.00;58906.56;5076133;27;45555;-68
2022/07/31 10:38:49;;;;;;;;;10.25;9.00;;;;;-146.44;100.00;58906.56;5073840;27;45466;-72
2022/07/31 10:41:24;;;;;;;;;10.75;8.50;;;;;-146.44;100.00;58906.56;5060882;28;45382;-72
2022/07/31 10:44:02;;;;;;;;;9.00;9.00;;;;;-146.44;100.00;58906.56;5066799;28;45526;-73
2022/07/31 10:46:29;;;;;;;;;12.00;11.25;;;;;-146.44;100.00;58906.56;5074251;28;48412;-68
2022/07/31 10:48:55;;;;;;;;;9.25;9.25;;;;;-146.44;100.00;58906.56;5070173;27;45715;-70
2022/07/31 10:51:21;;;;;;;;;9.50;9.00;;;;;-146.44;100.00;58906.56;5067048;28;45387;-71
2022/07/31 10:53:58;;;;;;;;;9.25;9.25;;;;;-146.44;100.00;58906.56;5055519;28;45656;-70
2022/07/31 10:56:24;;;;;;;;;7.75;7.75;;;;;-146.44;100.00;58906.56;5055529;28;45922;-69
2022/07/31 10:58:54;;;;;;;;;9.00;8.25;;;;;-146.44;100.00;58906.56;5074041;28;45442;-71
2022/07/31 11:01:21;;;;;;;;;9.00;7.00;;;;;-146.44;100.00;58906.56;5066266;28;45480;-68
2022/07/31 11:03:51;;;;;;;;;7.75;7.75;;;;;-146.44;100.00;58906.56;5071613;28;45397;-71
2022/07/31 11:06:17;;;;;;;;;7.75;7.75;;;;;-146.44;100.00;58906.56;5075758;28;45490;-71
2022/07/31 11:08:45;;;;;;;;;9.00;7.00;;;;;-146.44;100.00;58906.56;5073306;27;45533;-71